Cambridge Bay Airport
CYCB : now visible

Airfield :











YOU CAN JOIN US ON...

 
LOGIN :

Register | Disclaimer

   EN    FR    IT 

 









Legend :    VFR   Marginal VFR   IFR   Intensive IFR   Very Intensive IFR
Visi :
Ceiling :
>= 8 km
>= 3000ft
5 to 8 km
1000 to 3000 ft
1500m to 5 km
500 to 1000 ft
800 to 1500m
200 to 500 ft
< 800m
< 200 ft
Symbols :   Thunderstorms  Fog  Heavy snow  Heavy precipitations  Wind > 20 kt






- Airport Elevation : 90 ft
- IATA code : YCB


CYCB - Cambridge Bay

CURRENT METAR :
  • 090200Z 08020G27KT 15SM FEW020 BKN045 OVC073 11/06 A2960 RMK SC2SC4AC2 SLP027

EXPIRED METARs :
  • 090100Z 08020G27KT 15SM SCT020 BKN100 OVC200 12/06 A2961 RMK SC3AC4CI1 SLP031
  • 090000Z 06016G23KT 15SM SCT020 BKN100 OVC200 12/06 A2962 RMK SC3AC3CI2 SLP035 DENSITY ALT 200FT

TAF TAF CYCB
Valid from the 09 at 01:00 until the 09 at 13:00 UTC


090038Z 0901/0913 06015G25KT P6SM SCT020 BKN100 OVC200
TEMPO 0901/0913 P6SM -SHRA BKN020 BKN050 RMK NXT FCST BY 090700Z
CZEG FIR / North America



MET'MAP, your aeronautical weather chart ! - Copyright ORBIFLY December 2007 - Disclaimer

ORBIFLY MET'MAP TEAM :

Programming & Development : Alexandra Zaïnal
Concept & original design : Baudouin d'Aumeries
Assistance for programming : Marc-Olivier Méhu
Technical & hardware support : Manuel Goepfert

Contact : metmap@orbifly.com




SOURCES & CREDITS :

   NOAA       Earth
Advisory